Time;durP1;ratioP1;P1;durP2;ratioP2;P2;SDS_P1;SDS_P2;PMS_P1;PMS_P2;Temp;Humidity;BMP_temperature;BMP_pressure;BME280_temperature;BME280_humidity;BME280_pressure;Samples;Min_cycle;Max_cycle;Signal;HPM_P1;HPM_P2
2023/05/29 00:02:04;;;;;;;21.97;20.37;;;;;;;;;;5053227;28;20456;-77
2023/05/29 00:04:31;;;;;;;22.10;20.50;;;;;;;;;;5053023;28;20538;-76
2023/05/29 00:06:58;;;;;;;21.37;19.97;;;;;;;;;;5052620;28;20442;-76
2023/05/29 00:09:25;;;;;;;22.70;20.50;;;;;;;;;;5052537;28;20471;-77
2023/05/29 00:11:52;;;;;;;21.57;20.17;;;;;;;;;;5052626;28;20430;-76
2023/05/29 00:14:19;;;;;;;22.07;20.17;;;;;;;;;;5052938;28;20455;-76
2023/05/29 00:16:48;;;;;;;22.13;20.43;;;;;;;;;;5052683;28;20516;-76
2023/05/29 00:19:17;;;;;;;22.27;20.37;;;;;;;;;;5054335;28;20454;-77
2023/05/29 00:21:47;;;;;;;22.40;20.43;;;;;;;;;;5052541;28;20467;-77
2023/05/29 00:24:14;;;;;;;22.07;20.50;;;;;;;;;;5053787;28;21199;-77
2023/05/29 00:26:41;;;;;;;23.17;21.30;;;;;;;;;;5052688;28;20508;-76
2023/05/29 00:29:08;;;;;;;22.03;20.20;;;;;;;;;;5052819;28;20450;-76
2023/05/29 00:31:36;;;;;;;21.97;20.13;;;;;;;;;;5053115;28;20466;-76
2023/05/29 00:34:03;;;;;;;22.37;20.67;;;;;;;;;;5055186;28;20454;-77
2023/05/29 00:36:31;;;;;;;21.20;19.73;;;;;;;;;;5056736;28;20482;-78
2023/05/29 00:38:58;;;;;;;22.80;20.97;;;;;;;;;;5057611;28;20489;-77
2023/05/29 00:41:26;;;;;;;22.83;20.83;;;;;;;;;;5058813;28;20459;-77
2023/05/29 00:43:53;;;;;;;22.27;20.30;;;;;;;;;;5058449;28;20512;-78
2023/05/29 00:46:20;;;;;;;21.37;19.97;;;;;;;;;;5056950;28;20492;-76
2023/05/29 00:48:47;;;;;;;23.97;21.80;;;;;;;;;;5058568;28;20804;-76
2023/05/29 00:51:15;;;;;;;22.80;20.83;;;;;;;;;;5057508;28;20462;-77
2023/05/29 00:53:44;;;;;;;21.83;20.53;;;;;;;;;;5057452;28;20449;-77
2023/05/29 00:56:11;;;;;;;24.00;21.70;;;;;;;;;;5056368;28;20997;-76
2023/05/29 00:58:38;;;;;;;24.10;21.67;;;;;;;;;;5057604;28;20807;-76
2023/05/29 01:01:05;;;;;;;21.80;20.53;;;;;;;;;;5057011;28;20495;-77
2023/05/29 01:03:35;;;;;;;22.37;20.50;;;;;;;;;;5056684;28;20954;-76
2023/05/29 01:06:03;;;;;;;21.90;20.20;;;;;;;;;;5056943;28;20504;-76
2023/05/29 01:08:30;;;;;;;23.13;20.30;;;;;;;;;;5056285;28;20466;-77
2023/05/29 01:11:06;;;;;;;22.50;20.70;;;;;;;;;;5057979;28;20474;-76
2023/05/29 01:13:36;;;;;;;22.03;20.43;;;;;;;;;;5060411;28;20450;-78
2023/05/29 01:16:08;;;;;;;22.00;20.80;;;;;;;;;;5063155;28;20488;-77
2023/05/29 01:18:41;;;;;;;22.40;20.50;;;;;;;;;;5065288;28;20438;-77
2023/05/29 01:21:11;;;;;;;21.40;19.87;;;;;;;;;;5064701;28;20474;-76
2023/05/29 01:23:53;;;;;;;22.97;21.07;;;;;;;;;;5064767;28;20477;-78
2023/05/29 01:26:33;;;;;;;23.97;21.57;;;;;;;;;;5060434;28;20446;-77
2023/05/29 01:29:02;;;;;;;23.03;21.17;;;;;;;;;;5063447;28;20929;-77
2023/05/29 01:31:30;;;;;;;21.90;20.50;;;;;;;;;;5061020;28;20451;-76
2023/05/29 01:33:58;;;;;;;22.23;20.83;;;;;;;;;;5060135;28;20963;-76
2023/05/29 01:36:26;;;;;;;21.37;19.77;;;;;;;;;;5058407;28;20467;-76
2023/05/29 01:38:53;;;;;;;22.20;20.27;;;;;;;;;;5057915;28;20965;-77
2023/05/29 01:41:21;;;;;;;23.43;21.53;;;;;;;;;;5057206;28;20994;-75
2023/05/29 01:43:50;;;;;;;22.37;20.77;;;;;;;;;;5057867;28;20450;-75
2023/05/29 01:46:18;;;;;;;22.73;21.07;;;;;;;;;;5056183;28;20455;-76
2023/05/29 01:48:45;;;;;;;22.87;20.83;;;;;;;;;;5057551;28;20458;-76
2023/05/29 01:51:13;;;;;;;22.33;20.60;;;;;;;;;;5060729;28;20471;-76
2023/05/29 01:53:40;;;;;;;22.73;20.63;;;;;;;;;;5058000;28;20465;-75
2023/05/29 01:56:07;;;;;;;22.60;20.93;;;;;;;;;;5056137;28;20893;-75
2023/05/29 01:58:35;;;;;;;23.47;21.50;;;;;;;;;;5056252;28;21014;-76
2023/05/29 02:01:04;;;;;;;23.63;21.47;;;;;;;;;;5058421;28;20482;-76
2023/05/29 02:03:31;;;;;;;23.33;21.40;;;;;;;;;;5060223;28;20450;-76
2023/05/29 02:05:58;;;;;;;22.53;20.67;;;;;;;;;;5061762;28;20985;-75
2023/05/29 02:08:25;;;;;;;23.57;21.43;;;;;;;;;;5062329;28;20458;-75
2023/05/29 02:10:52;;;;;;;21.83;20.03;;;;;;;;;;5054684;28;20489;-75
2023/05/29 02:13:20;;;;;;;22.00;19.83;;;;;;;;;;5056227;28;20455;-76
2023/05/29 02:15:47;;;;;;;22.37;20.57;;;;;;;;;;5055827;28;20524;-75
2023/05/29 02:18:17;;;;;;;23.20;21.33;;;;;;;;;;5056985;28;20516;-76
2023/05/29 02:20:44;;;;;;;21.23;19.70;;;;;;;;;;5056695;28;20516;-76
2023/05/29 02:23:11;;;;;;;22.13;20.07;;;;;;;;;;5055968;28;20455;-75
2023/05/29 02:25:38;;;;;;;21.87;19.97;;;;;;;;;;5054873;28;20800;-75
2023/05/29 02:28:05;;;;;;;23.93;21.77;;;;;;;;;;5056549;28;20455;-75
2023/05/29 02:30:32;;;;;;;23.00;20.80;;;;;;;;;;5055056;28;20475;-75
2023/05/29 02:32:59;;;;;;;21.67;20.10;;;;;;;;;;5055629;28;20442;-75
2023/05/29 02:35:27;;;;;;;22.07;20.10;;;;;;;;;;5054240;28;20478;-75
2023/05/29 02:37:54;;;;;;;23.00;20.60;;;;;;;;;;5054075;28;20466;-75
2023/05/29 02:40:22;;;;;;;22.87;20.90;;;;;;;;;;5053632;28;20853;-75
2023/05/29 02:42:50;;;;;;;22.37;20.40;;;;;;;;;;5054573;28;20496;-75
2023/05/29 02:45:17;;;;;;;22.80;20.80;;;;;;;;;;5054020;28;20534;-75
2023/05/29 02:47:44;;;;;;;22.97;20.30;;;;;;;;;;5053925;28;20505;-75
2023/05/29 02:50:14;;;;;;;21.77;20.13;;;;;;;;;;5054112;28;20471;-75
2023/05/29 02:52:42;;;;;;;22.20;20.33;;;;;;;;;;5054499;28;20439;-75
2023/05/29 02:55:10;;;;;;;21.23;19.53;;;;;;;;;;5054140;28;20461;-75
2023/05/29 02:57:37;;;;;;;26.80;20.60;;;;;;;;;;5052580;28;21012;-76
2023/05/29 03:00:05;;;;;;;22.53;20.70;;;;;;;;;;5053263;28;20487;-75
2023/05/29 03:02:33;;;;;;;23.67;21.17;;;;;;;;;;5053874;28;20475;-75
2023/05/29 03:05:00;;;;;;;23.03;21.00;;;;;;;;;;5053945;28;20454;-76
2023/05/29 03:07:27;;;;;;;22.53;20.80;;;;;;;;;;5053411;28;20586;-75
2023/05/29 03:09:56;;;;;;;21.40;19.93;;;;;;;;;;5054075;28;20991;-77
2023/05/29 03:12:23;;;;;;;21.90;20.20;;;;;;;;;;5053792;28;20463;-77
2023/05/29 03:14:50;;;;;;;22.00;19.77;;;;;;;;;;5054207;28;20458;-77
2023/05/29 03:17:17;;;;;;;21.93;20.20;;;;;;;;;;5054322;28;20520;-78
2023/05/29 03:19:44;;;;;;;22.10;20.03;;;;;;;;;;5053759;28;20519;-75
2023/05/29 03:22:11;;;;;;;21.57;20.10;;;;;;;;;;5052763;28;20441;-75
2023/05/29 03:24:38;;;;;;;24.10;22.10;;;;;;;;;;5053148;28;20947;-74
2023/05/29 03:27:06;;;;;;;21.60;19.80;;;;;;;;;;5052540;28;20926;-74
2023/05/29 03:29:33;;;;;;;22.63;20.43;;;;;;;;;;5053202;28;20474;-75
2023/05/29 03:32:00;;;;;;;21.73;19.67;;;;;;;;;;5052865;28;20462;-74
2023/05/29 03:34:27;;;;;;;22.40;20.40;;;;;;;;;;5053389;28;20427;-74
2023/05/29 03:36:54;;;;;;;23.03;20.97;;;;;;;;;;5052815;28;20544;-76
2023/05/29 03:39:21;;;;;;;22.77;20.63;;;;;;;;;;5052683;28;20547;-75
2023/05/29 03:41:48;;;;;;;21.93;20.13;;;;;;;;;;5053137;28;20438;-73
2023/05/29 03:44:18;;;;;;;23.90;21.70;;;;;;;;;;5052381;28;20469;-75
2023/05/29 03:46:45;;;;;;;21.37;19.70;;;;;;;;;;5052588;28;20451;-75
2023/05/29 03:49:11;;;;;;;22.57;20.73;;;;;;;;;;5052754;28;20447;-76
2023/05/29 03:51:38;;;;;;;22.23;20.00;;;;;;;;;;5052933;28;20807;-74
2023/05/29 03:54:05;;;;;;;21.20;19.50;;;;;;;;;;5052101;28;20520;-73
2023/05/29 03:56:32;;;;;;;22.40;20.30;;;;;;;;;;5052574;28;20461;-76
2023/05/29 03:58:59;;;;;;;22.43;20.47;;;;;;;;;;5052866;28;20450;-77
2023/05/29 04:01:28;;;;;;;21.80;19.83;;;;;;;;;;5052565;28;20450;-74
2023/05/29 04:03:55;;;;;;;21.27;19.73;;;;;;;;;;5053782;28;20460;-74
2023/05/29 04:06:23;;;;;;;21.90;20.07;;;;;;;;;;5052363;28;20525;-74
2023/05/29 04:08:50;;;;;;;21.90;19.70;;;;;;;;;;5052278;28;20473;-75
2023/05/29 04:11:17;;;;;;;22.40;19.40;;;;;;;;;;5052263;28;20444;-75
2023/05/29 04:13:44;;;;;;;20.93;19.40;;;;;;;;;;5052455;28;20493;-75
2023/05/29 04:16:11;;;;;;;22.60;20.87;;;;;;;;;;5051506;28;20541;-74
2023/05/29 04:18:39;;;;;;;22.77;20.83;;;;;;;;;;5052775;28;20454;-74
2023/05/29 04:21:06;;;;;;;24.70;22.10;;;;;;;;;;5051974;28;20483;-75
2023/05/29 04:23:33;;;;;;;22.70;20.60;;;;;;;;;;5052895;28;20500;-75
2023/05/29 04:26:01;;;;;;;21.30;19.47;;;;;;;;;;5052127;28;20500;-74
2023/05/29 04:28:28;;;;;;;21.70;20.00;;;;;;;;;;5052399;28;20931;-75
2023/05/29 04:30:56;;;;;;;20.63;19.03;;;;;;;;;;5051742;28;20540;-74
2023/05/29 04:33:24;;;;;;;22.73;20.93;;;;;;;;;;5052434;28;20447;-74
2023/05/29 04:35:52;;;;;;;22.17;20.10;;;;;;;;;;5052196;28;20479;-77
2023/05/29 04:38:24;;;;;;;21.30;19.43;;;;;;;;;;5052574;28;20429;-75
2023/05/29 04:40:51;;;;;;;22.50;20.60;;;;;;;;;;5051293;28;20841;-75
2023/05/29 04:43:18;;;;;;;21.10;19.53;;;;;;;;;;5051905;28;20942;-74
2023/05/29 04:45:45;;;;;;;21.83;19.63;;;;;;;;;;5051489;28;20801;-74
2023/05/29 04:48:12;;;;;;;20.73;18.80;;;;;;;;;;5052252;28;20511;-74
2023/05/29 04:50:39;;;;;;;22.20;20.10;;;;;;;;;;5052088;28;20462;-75
2023/05/29 04:53:07;;;;;;;21.67;19.87;;;;;;;;;;5052152;28;20451;-74
2023/05/29 04:55:34;;;;;;;21.43;19.73;;;;;;;;;;5051662;28;20433;-75
2023/05/29 04:58:01;;;;;;;21.50;19.90;;;;;;;;;;5052648;28;20442;-74
2023/05/29 05:00:28;;;;;;;23.57;21.00;;;;;;;;;;5051342;28;20507;-75
2023/05/29 05:02:56;;;;;;;22.07;20.30;;;;;;;;;;5052237;28;20446;-74
2023/05/29 05:05:23;;;;;;;21.60;19.97;;;;;;;;;;5052615;28;20490;-77
2023/05/29 05:07:50;;;;;;;22.63;20.67;;;;;;;;;;5052331;28;20866;-74
2023/05/29 05:10:18;;;;;;;24.93;20.57;;;;;;;;;;5052325;28;20503;-74
2023/05/29 05:12:45;;;;;;;23.50;21.33;;;;;;;;;;5051776;28;20445;-75
2023/05/29 05:15:12;;;;;;;25.67;20.90;;;;;;;;;;5051908;28;20454;-75
2023/05/29 05:17:39;;;;;;;22.00;20.30;;;;;;;;;;5051528;28;20513;-75
2023/05/29 05:20:08;;;;;;;21.73;19.83;;;;;;;;;;5053407;28;20553;-75
2023/05/29 05:22:35;;;;;;;22.43;20.33;;;;;;;;;;5056002;28;20421;-74
2023/05/29 05:25:03;;;;;;;22.10;20.27;;;;;;;;;;5055056;28;20462;-74
2023/05/29 05:27:32;;;;;;;21.17;19.50;;;;;;;;;;5055165;28;20446;-75
2023/05/29 05:29:59;;;;;;;22.97;20.93;;;;;;;;;;5055268;28;20512;-74
2023/05/29 05:32:26;;;;;;;21.47;20.07;;;;;;;;;;5055173;28;20965;-74
2023/05/29 05:34:53;;;;;;;23.03;21.33;;;;;;;;;;5064617;28;20465;-74
2023/05/29 05:37:23;;;;;;;23.37;21.03;;;;;;;;;;5074586;28;20481;-76
2023/05/29 05:39:50;;;;;;;21.77;20.27;;;;;;;;;;5075445;28;20553;-76
2023/05/29 05:42:17;;;;;;;24.30;21.70;;;;;;;;;;5075559;28;21056;-77
2023/05/29 05:44:46;;;;;;;22.50;20.57;;;;;;;;;;5075717;28;20809;-74
2023/05/29 05:47:13;;;;;;;21.77;20.00;;;;;;;;;;5075003;28;20536;-75
2023/05/29 05:49:40;;;;;;;21.70;19.93;;;;;;;;;;5074751;28;20477;-75
2023/05/29 05:52:07;;;;;;;23.00;21.20;;;;;;;;;;5075849;28;20453;-74
2023/05/29 05:54:34;;;;;;;21.97;19.90;;;;;;;;;;5075298;28;20454;-74
2023/05/29 05:57:02;;;;;;;21.97;20.07;;;;;;;;;;5074799;28;20477;-74
2023/05/29 05:59:29;;;;;;;21.20;19.80;;;;;;;;;;5074520;28;20486;-75
2023/05/29 06:01:58;;;;;;;22.40;20.10;;;;;;;;;;5075184;28;20499;-75
2023/05/29 06:04:25;;;;;;;22.90;20.67;;;;;;;;;;5075002;28;20461;-75
2023/05/29 06:06:52;;;;;;;21.97;20.17;;;;;;;;;;5074818;28;20488;-75
2023/05/29 06:09:19;;;;;;;23.63;21.17;;;;;;;;;;5074874;28;20465;-76
2023/05/29 06:11:45;;;;;;;22.17;20.43;;;;;;;;;;5075508;28;20519;-74
2023/05/29 06:14:12;;;;;;;22.10;20.30;;;;;;;;;;5074253;28;20441;-74
2023/05/29 06:16:39;;;;;;;23.03;21.20;;;;;;;;;;5074510;28;20469;-74
2023/05/29 06:19:08;;;;;;;23.30;21.10;;;;;;;;;;5074600;28;20442;-75
2023/05/29 06:21:35;;;;;;;23.10;21.13;;;;;;;;;;5074738;28;20458;-74
2023/05/29 06:24:02;;;;;;;22.13;19.90;;;;;;;;;;5074817;28;20450;-75
2023/05/29 06:26:29;;;;;;;23.43;21.47;;;;;;;;;;5073359;28;20519;-74
2023/05/29 06:28:56;;;;;;;23.40;21.50;;;;;;;;;;5074402;28;20449;-74
2023/05/29 06:31:23;;;;;;;22.23;20.40;;;;;;;;;;5073782;28;20475;-74
2023/05/29 06:33:50;;;;;;;22.30;20.60;;;;;;;;;;5074658;28;20995;-77
2023/05/29 06:36:18;;;;;;;22.87;20.83;;;;;;;;;;5074019;28;20450;-76
2023/05/29 06:38:48;;;;;;;23.93;21.73;;;;;;;;;;5074319;28;20462;-74
2023/05/29 06:41:14;;;;;;;22.50;20.83;;;;;;;;;;5073568;28;20502;-76
2023/05/29 06:43:41;;;;;;;22.63;20.83;;;;;;;;;;5074403;28;20508;-76
2023/05/29 06:46:08;;;;;;;23.80;21.60;;;;;;;;;;5073536;28;20420;-77
2023/05/29 06:48:35;;;;;;;22.83;21.00;;;;;;;;;;5074133;28;21008;-76
2023/05/29 06:51:08;;;;;;;25.50;23.03;;;;;;;;;;5073315;28;20481;-74
2023/05/29 06:53:37;;;;;;;24.90;22.70;;;;;;;;;;5074332;28;20802;-75
2023/05/29 06:56:11;;;;;;;23.77;22.03;;;;;;;;;;5073588;28;20507;-76
2023/05/29 06:58:39;;;;;;;25.90;23.40;;;;;;;;;;5074254;28;20429;-74
2023/05/29 07:01:06;;;;;;;25.20;22.70;;;;;;;;;;5072590;28;20924;-75
2023/05/29 07:03:34;;;;;;;24.70;23.00;;;;;;;;;;5074134;28;20437;-75
2023/05/29 07:06:01;;;;;;;25.37;23.03;;;;;;;;;;5073836;28;20503;-77
2023/05/29 07:08:28;;;;;;;23.70;21.60;;;;;;;;;;5074097;28;20455;-75
2023/05/29 07:10:57;;;;;;;25.20;22.93;;;;;;;;;;5073038;28;20469;-75
2023/05/29 07:13:26;;;;;;;26.90;24.43;;;;;;;;;;5073546;28;20450;-75
2023/05/29 07:15:53;;;;;;;25.23;22.90;;;;;;;;;;5072807;28;20453;-75
2023/05/29 07:18:20;;;;;;;25.40;23.30;;;;;;;;;;5073595;28;20531;-75
2023/05/29 07:20:47;;;;;;;25.37;23.20;;;;;;;;;;5073325;28;20523;-75
2023/05/29 07:23:14;;;;;;;24.57;22.73;;;;;;;;;;5073716;28;20500;-74
2023/05/29 07:25:41;;;;;;;26.63;24.13;;;;;;;;;;5073049;28;20464;-75
2023/05/29 07:28:10;;;;;;;24.13;22.40;;;;;;;;;;5073711;28;20445;-75
2023/05/29 07:30:36;;;;;;;23.83;21.50;;;;;;;;;;5072557;28;20565;-75
2023/05/29 07:33:04;;;;;;;23.77;21.60;;;;;;;;;;5073414;28;20495;-75
2023/05/29 07:35:32;;;;;;;23.77;21.67;;;;;;;;;;5073093;28;20508;-75
2023/05/29 07:37:59;;;;;;;24.37;22.10;;;;;;;;;;5073227;28;20489;-75
2023/05/29 07:40:27;;;;;;;25.80;23.17;;;;;;;;;;5072759;28;20477;-75
2023/05/29 07:42:54;;;;;;;23.73;21.40;;;;;;;;;;5073019;28;20405;-75
2023/05/29 07:45:22;;;;;;;24.37;22.33;;;;;;;;;;5074362;28;20420;-76
2023/05/29 07:47:49;;;;;;;23.43;21.03;;;;;;;;;;5072431;28;20447;-76
2023/05/29 07:50:16;;;;;;;24.00;22.17;;;;;;;;;;5071506;28;20519;-75
2023/05/29 07:52:43;;;;;;;23.03;21.23;;;;;;;;;;5091033;28;20450;-81
2023/05/29 07:55:10;;;;;;;22.80;20.80;;;;;;;;;;5095885;28;20498;-80
2023/05/29 07:57:39;;;;;;;23.33;21.10;;;;;;;;;;5095842;28;20845;-83
2023/05/29 08:00:07;;;;;;;22.97;21.13;;;;;;;;;;5093322;28;20477;-84
2023/05/29 08:02:36;;;;;;;23.10;21.20;;;;;;;;;;5056653;28;20482;-81
2023/05/29 08:05:03;;;;;;;22.43;20.63;;;;;;;;;;5053191;28;20453;-81
2023/05/29 08:07:30;;;;;;;23.50;21.10;;;;;;;;;;5052107;28;20443;-83
2023/05/29 08:09:57;;;;;;;22.73;21.00;;;;;;;;;;5052149;28;20485;-80
2023/05/29 08:12:24;;;;;;;24.20;22.00;;;;;;;;;;5053365;28;20837;-84
2023/05/29 08:14:52;;;;;;;24.97;22.47;;;;;;;;;;5054907;28;20471;-83
2023/05/29 08:17:19;;;;;;;24.27;22.10;;;;;;;;;;5055925;28;20490;-84
2023/05/29 08:19:47;;;;;;;25.47;23.37;;;;;;;;;;5055824;28;20528;-83
2023/05/29 08:22:15;;;;;;;24.77;22.37;;;;;;;;;;5055114;28;20819;-83
2023/05/29 08:24:42;;;;;;;27.53;22.57;;;;;;;;;;5058095;28;20453;-83
2023/05/29 08:27:09;;;;;;;23.13;21.27;;;;;;;;;;5052724;28;20577;-74
2023/05/29 08:29:38;;;;;;;23.10;21.47;;;;;;;;;;5052453;28;21062;-75
2023/05/29 08:32:05;;;;;;;24.80;22.20;;;;;;;;;;5052291;28;20434;-74
2023/05/29 08:34:33;;;;;;;24.23;22.50;;;;;;;;;;5044683;28;20523;-75
2023/05/29 08:37:01;;;;;;;23.90;21.90;;;;;;;;;;5051637;28;20847;-74
2023/05/29 08:39:28;;;;;;;24.03;22.03;;;;;;;;;;5051597;28;20660;-75
2023/05/29 08:42:01;;;;;;;24.17;21.83;;;;;;;;;;5052333;28;20514;-74
2023/05/29 08:44:31;;;;;;;22.63;21.03;;;;;;;;;;5052480;28;20461;-73
2023/05/29 08:46:59;;;;;;;22.47;20.90;;;;;;;;;;5051103;28;20512;-74
2023/05/29 08:49:29;;;;;;;23.20;21.40;;;;;;;;;;5052171;28;20497;-74
2023/05/29 08:51:59;;;;;;;24.13;22.00;;;;;;;;;;5052193;28;20535;-74
2023/05/29 08:54:27;;;;;;;25.10;23.00;;;;;;;;;;5052811;28;20481;-75
2023/05/29 08:56:54;;;;;;;22.30;20.80;;;;;;;;;;5055986;28;20418;-76
2023/05/29 08:59:21;;;;;;;24.67;22.40;;;;;;;;;;5057534;28;20469;-85
2023/05/29 09:01:48;;;;;;;23.30;21.70;;;;;;;;;;5058455;28;20508;-85
2023/05/29 09:04:16;;;;;;;24.73;22.87;;;;;;;;;;5057548;28;20434;-80
2023/05/29 09:06:46;;;;;;;27.40;23.13;;;;;;;;;;5055717;28;20467;-80
2023/05/29 09:09:13;;;;;;;24.93;22.97;;;;;;;;;;5069566;28;20448;-80
2023/05/29 09:11:42;;;;;;;25.87;23.60;;;;;;;;;;5058009;28;20450;-81
2023/05/29 09:14:12;;;;;;;23.83;21.93;;;;;;;;;;5057226;28;20935;-82
2023/05/29 09:16:43;;;;;;;23.87;22.20;;;;;;;;;;5056622;28;20833;-81
2023/05/29 09:19:10;;;;;;;24.73;22.63;;;;;;;;;;5057597;28;20463;-82
2023/05/29 09:21:38;;;;;;;24.53;22.27;;;;;;;;;;5057726;28;20814;-81
2023/05/29 09:24:05;;;;;;;24.60;22.43;;;;;;;;;;5060778;28;20454;-80
2023/05/29 09:26:32;;;;;;;23.20;21.50;;;;;;;;;;5063339;28;20450;-83
2023/05/29 09:29:01;;;;;;;24.97;22.87;;;;;;;;;;5059084;28;20448;-82
2023/05/29 09:31:28;;;;;;;23.77;22.07;;;;;;;;;;5057306;28;20789;-83
2023/05/29 09:33:55;;;;;;;25.73;23.50;;;;;;;;;;5057265;28;20455;-77
2023/05/29 09:36:23;;;;;;;25.27;23.20;;;;;;;;;;5055546;28;20489;-78
2023/05/29 09:38:50;;;;;;;23.87;22.00;;;;;;;;;;5057349;28;20851;-81
2023/05/29 09:41:23;;;;;;;24.83;23.03;;;;;;;;;;5058315;28;20529;-80
2023/05/29 09:43:50;;;;;;;24.67;22.50;;;;;;;;;;5073124;28;20639;-77
2023/05/29 09:46:19;;;;;;;23.77;21.93;;;;;;;;;;5073392;28;20853;-78
2023/05/29 09:48:47;;;;;;;24.10;22.13;;;;;;;;;;5072331;28;20800;-80
2023/05/29 09:51:21;;;;;;;24.33;22.50;;;;;;;;;;5057192;28;20828;-79
2023/05/29 09:53:50;;;;;;;23.87;22.10;;;;;;;;;;5056107;28;20915;-77
2023/05/29 09:56:18;;;;;;;25.87;23.87;;;;;;;;;;5057893;28;20489;-81
2023/05/29 09:58:46;;;;;;;25.43;23.43;;;;;;;;;;5058627;28;20521;-86
2023/05/29 10:01:15;;;;;;;27.10;24.90;;;;;;;;;;5057893;28;20471;-80
2023/05/29 10:03:43;;;;;;;26.03;24.03;;;;;;;;;;5057445;28;20898;-79
2023/05/29 10:06:13;;;;;;;25.50;23.87;;;;;;;;;;5056707;28;20506;-79
2023/05/29 10:08:43;;;;;;;27.03;25.13;;;;;;;;;;5057947;28;20554;-78
2023/05/29 10:11:15;;;;;;;26.73;24.63;;;;;;;;;;5057336;28;20507;-79
2023/05/29 10:13:45;;;;;;;25.50;23.80;;;;;;;;;;5057693;28;20523;-79
2023/05/29 10:16:13;;;;;;;25.33;23.63;;;;;;;;;;5056714;28;20472;-80
2023/05/29 10:18:41;;;;;;;25.40;23.20;;;;;;;;;;5066310;28;20470;-78
2023/05/29 10:21:10;;;;;;;24.40;22.40;;;;;;;;;;5074857;28;20461;-74
2023/05/29 10:23:38;;;;;;;24.77;22.70;;;;;;;;;;5074882;28;20456;-75
2023/05/29 10:26:08;;;;;;;23.90;22.00;;;;;;;;;;5074398;28;20486;-76
2023/05/29 10:28:38;;;;;;;24.50;22.57;;;;;;;;;;5074791;28;20454;-74
2023/05/29 10:31:08;;;;;;;25.27;22.90;;;;;;;;;;5074922;28;20473;-74
2023/05/29 10:33:41;;;;;;;24.30;22.40;;;;;;;;;;5074125;28;20954;-75
2023/05/29 10:36:12;;;;;;;23.43;21.77;;;;;;;;;;5079646;28;20959;-81
2023/05/29 10:38:42;;;;;;;23.80;22.03;;;;;;;;;;5075962;28;20488;-80
2023/05/29 10:41:31;;;;;;;25.07;22.97;;;;;;;;;;5056523;28;20488;-78
2023/05/29 10:44:02;;;;;;;25.20;23.23;;;;;;;;;;5055672;28;20447;-79
2023/05/29 10:46:48;;;;;;;23.00;21.43;;;;;;;;;;5062798;28;20436;-80
2023/05/29 10:49:17;;;;;;;24.30;22.60;;;;;;;;;;5076416;28;20554;-81
2023/05/29 10:51:45;;;;;;;24.23;22.20;;;;;;;;;;5076210;28;20513;-77
2023/05/29 10:54:13;;;;;;;25.07;23.17;;;;;;;;;;5076705;28;20495;-77
2023/05/29 10:56:41;;;;;;;24.77;22.70;;;;;;;;;;5074793;28;20500;-74
2023/05/29 10:59:09;;;;;;;25.30;23.23;;;;;;;;;;5075062;28;20572;-76
2023/05/29 11:01:39;;;;;;;25.80;23.50;;;;;;;;;;5072990;28;20466;-76
2023/05/29 11:04:26;;;;;;;24.33;22.63;;;;;;;;;;5075271;28;20426;-76
2023/05/29 11:06:54;;;;;;;24.47;22.80;;;;;;;;;;5073941;28;20547;-76
2023/05/29 11:09:28;;;;;;;25.67;23.87;;;;;;;;;;5073813;28;20988;-77
2023/05/29 11:12:23;;;;;;;25.60;23.87;;;;;;;;;;5075420;28;20537;-78
2023/05/29 11:14:55;;;;;;;24.27;22.40;;;;;;;;;;5073991;28;20430;-77
2023/05/29 11:17:32;;;;;;;24.47;22.67;;;;;;;;;;5072967;28;20480;-76
2023/05/29 11:20:04;;;;;;;24.53;22.70;;;;;;;;;;5073997;28;20840;-77
2023/05/29 11:22:35;;;;;;;24.13;22.43;;;;;;;;;;5073653;28;20747;-76
2023/05/29 11:25:04;;;;;;;24.70;22.93;;;;;;;;;;5074091;28;20428;-76
2023/05/29 11:27:31;;;;;;;27.37;25.03;;;;;;;;;;5073063;28;20947;-76
2023/05/29 11:29:58;;;;;;;25.53;23.50;;;;;;;;;;5073125;28;20479;-76
2023/05/29 11:32:27;;;;;;;25.93;24.20;;;;;;;;;;5073843;28;20452;-76
2023/05/29 11:34:56;;;;;;;26.20;24.10;;;;;;;;;;5073827;28;20850;-77
2023/05/29 11:37:23;;;;;;;25.20;23.50;;;;;;;;;;5073023;28;20486;-76
2023/05/29 11:39:52;;;;;;;26.10;24.10;;;;;;;;;;5072758;28;20492;-76
2023/05/29 11:42:19;;;;;;;25.00;23.30;;;;;;;;;;5073566;28;20491;-77
2023/05/29 11:44:46;;;;;;;25.07;23.50;;;;;;;;;;5073439;28;20425;-76
2023/05/29 11:47:14;;;;;;;25.13;22.90;;;;;;;;;;5072795;28;20506;-76
2023/05/29 11:49:41;;;;;;;24.97;22.97;;;;;;;;;;5073196;28;20456;-76
2023/05/29 11:52:09;;;;;;;25.00;23.30;;;;;;;;;;5073282;28;20422;-76
2023/05/29 11:54:36;;;;;;;23.00;21.40;;;;;;;;;;5073364;28;20426;-77
2023/05/29 11:57:05;;;;;;;25.10;23.13;;;;;;;;;;5072486;28;20508;-77
2023/05/29 11:59:32;;;;;;;24.60;22.80;;;;;;;;;;5071989;28;20462;-76
2023/05/29 12:02:00;;;;;;;25.70;23.60;;;;;;;;;;5072784;28;20445;-76
2023/05/29 12:04:30;;;;;;;25.87;23.90;;;;;;;;;;5072889;28;20427;-76
2023/05/29 12:06:57;;;;;;;23.30;21.60;;;;;;;;;;5072182;28;20433;-76
2023/05/29 12:09:25;;;;;;;24.27;22.47;;;;;;;;;;5073206;28;20489;-78
2023/05/29 12:11:52;;;;;;;23.83;22.00;;;;;;;;;;5073394;28;20427;-76
2023/05/29 12:14:21;;;;;;;24.30;22.50;;;;;;;;;;5075282;28;20501;-78
2023/05/29 12:16:48;;;;;;;24.27;22.27;;;;;;;;;;5074345;28;20980;-77
2023/05/29 12:19:15;;;;;;;25.23;23.33;;;;;;;;;;5073739;28;20533;-79
2023/05/29 12:21:43;;;;;;;24.23;22.37;;;;;;;;;;5073432;28;20448;-77
2023/05/29 12:24:10;;;;;;;25.30;23.30;;;;;;;;;;5072774;28;20437;-77
2023/05/29 12:26:37;;;;;;;25.00;23.10;;;;;;;;;;5072247;28;20460;-77
2023/05/29 12:29:05;;;;;;;25.80;23.90;;;;;;;;;;5072600;28;20502;-76
2023/05/29 12:31:33;;;;;;;25.17;23.27;;;;;;;;;;5072914;28;20540;-78
2023/05/29 12:34:04;;;;;;;25.50;23.50;;;;;;;;;;5072823;28;20457;-78
2023/05/29 12:36:32;;;;;;;24.20;22.40;;;;;;;;;;5072303;28;20452;-76
2023/05/29 12:39:00;;;;;;;25.70;23.50;;;;;;;;;;5072306;28;21010;-77
2023/05/29 12:41:28;;;;;;;25.40;23.50;;;;;;;;;;5072704;28;20489;-76
2023/05/29 12:43:56;;;;;;;24.87;23.20;;;;;;;;;;5072603;28;20461;-78
2023/05/29 12:46:23;;;;;;;25.50;23.50;;;;;;;;;;5072134;28;20503;-76
2023/05/29 12:48:54;;;;;;;25.40;23.37;;;;;;;;;;5072558;28;20465;-76
2023/05/29 12:51:24;;;;;;;24.50;22.80;;;;;;;;;;5073871;28;20495;-76
2023/05/29 12:53:54;;;;;;;25.43;23.63;;;;;;;;;;5072805;28;20449;-76
2023/05/29 12:56:22;;;;;;;26.67;24.10;;;;;;;;;;5071997;28;20452;-76
2023/05/29 12:58:49;;;;;;;25.60;23.80;;;;;;;;;;5072810;28;20462;-76
2023/05/29 13:01:16;;;;;;;25.23;23.43;;;;;;;;;;5072552;28;20519;-75
2023/05/29 13:03:43;;;;;;;24.30;22.50;;;;;;;;;;5072404;28;20798;-76
2023/05/29 13:06:11;;;;;;;25.10;23.07;;;;;;;;;;5072049;28;20460;-76
2023/05/29 13:08:39;;;;;;;23.20;21.57;;;;;;;;;;5072491;28;20458;-76
2023/05/29 13:11:06;;;;;;;24.30;22.43;;;;;;;;;;5072459;28;20475;-76
2023/05/29 13:13:33;;;;;;;23.70;22.10;;;;;;;;;;5072297;28;20502;-77
2023/05/29 13:15:59;;;;;;;24.33;22.60;;;;;;;;;;5071909;28;20460;-76
2023/05/29 13:18:26;;;;;;;24.77;23.03;;;;;;;;;;5072448;28;20497;-76
2023/05/29 13:20:53;;;;;;;25.00;23.40;;;;;;;;;;5072188;28;20527;-75
2023/05/29 13:23:22;;;;;;;24.20;22.50;;;;;;;;;;5072313;28;20428;-75
2023/05/29 13:25:49;;;;;;;25.10;23.20;;;;;;;;;;5071809;28;20441;-76
2023/05/29 13:28:16;;;;;;;26.80;24.23;;;;;;;;;;5072451;28;20424;-75
2023/05/29 13:30:43;;;;;;;25.83;23.83;;;;;;;;;;5072289;28;20440;-76
2023/05/29 13:33:11;;;;;;;25.70;23.70;;;;;;;;;;5072215;28;20458;-77
2023/05/29 13:35:37;;;;;;;24.90;23.20;;;;;;;;;;5071562;28;20951;-76
2023/05/29 13:38:05;;;;;;;25.83;23.93;;;;;;;;;;5071876;28;20492;-76
2023/05/29 13:40:33;;;;;;;25.07;23.37;;;;;;;;;;5072819;28;20474;-76
2023/05/29 13:43:00;;;;;;;26.63;24.73;;;;;;;;;;5075815;28;20443;-76
2023/05/29 13:45:27;;;;;;;24.10;22.37;;;;;;;;;;5075522;28;20431;-78
2023/05/29 13:47:54;;;;;;;25.23;23.13;;;;;;;;;;5075570;28;20427;-77
2023/05/29 13:50:23;;;;;;;26.03;23.83;;;;;;;;;;5076074;28;20499;-77
2023/05/29 13:52:50;;;;;;;26.70;24.60;;;;;;;;;;5076143;28;20489;-76
2023/05/29 13:55:17;;;;;;;25.63;23.70;;;;;;;;;;5075842;28;20458;-77
2023/05/29 13:57:45;;;;;;;25.60;23.27;;;;;;;;;;5075562;28;20485;-76
2023/05/29 14:00:13;;;;;;;25.57;23.63;;;;;;;;;;5076099;28;20467;-78
2023/05/29 14:02:40;;;;;;;24.77;22.80;;;;;;;;;;5076484;28;20883;-78
2023/05/29 14:05:07;;;;;;;25.87;23.57;;;;;;;;;;5076668;28;20980;-78
2023/05/29 14:07:35;;;;;;;25.47;23.50;;;;;;;;;;5076361;28;20454;-79
2023/05/29 14:10:02;;;;;;;25.03;23.13;;;;;;;;;;5076548;28;20483;-78
2023/05/29 14:12:29;;;;;;;24.50;22.80;;;;;;;;;;5076617;28;20404;-78
2023/05/29 14:14:57;;;;;;;26.10;23.93;;;;;;;;;;5076227;28;20909;-77
2023/05/29 14:17:25;;;;;;;26.37;24.23;;;;;;;;;;5077056;28;20832;-77
2023/05/29 14:19:52;;;;;;;26.50;24.13;;;;;;;;;;5079473;28;20492;-77
2023/05/29 14:22:19;;;;;;;26.17;24.07;;;;;;;;;;5080276;28;20454;-77